Big Bend National Park, Texas
Current Conditions -  °F | °C
As of 7:15 AM on Thursday 23 Oct 2014 (Local Time) from KPRS Reporting Station
Clear Clear  
Wind Chill: 61°   Ceiling: Unl
Heat Index: 61°   Visibility: 10mi
Dew Point: 58°   Wind: 5mph
Humidity: 91%   Direction: 20°NNE
Pressure: 30.13"   Gusts: NA
Location:  29.2813°N, 103.166°W
Report Text: KPRS 231215Z AUTO 02004KT 10SM CLR 16/15 A3013 RMK AO2 T01620147
Loading
Personal Weather Stations






























Interactive Weather Map
Tropical Storm Tracking
New forecast layout! Learn more

10-Day Weather Forecast

Advertisements
Track Severe Weather on mobile